createdAt,value
2018-06-28T00:00:21.854Z,1023.89
2018-06-28T00:01:21.873Z,1023.87
2018-06-28T00:02:42.913Z,1023.90
2018-06-28T00:03:21.926Z,1023.90
2018-06-28T00:04:21.945Z,1023.94
2018-06-28T00:05:21.973Z,1023.92
2018-06-28T00:06:21.997Z,1023.90
2018-06-28T00:07:22.017Z,1023.91
2018-06-28T00:08:43.066Z,1023.91
2018-06-28T00:09:22.068Z,1023.88
2018-06-28T00:10:22.092Z,1023.85
2018-06-28T00:11:22.114Z,1023.89
2018-06-28T00:12:22.136Z,1023.90
2018-06-28T00:13:22.157Z,1023.88
2018-06-28T00:14:43.198Z,1023.85
2018-06-28T00:15:22.227Z,1023.88
2018-06-28T00:16:22.249Z,1023.86
2018-06-28T00:17:22.256Z,1023.88
2018-06-28T00:18:22.283Z,1023.89
2018-06-28T00:19:22.299Z,1023.91
2018-06-28T00:20:43.340Z,1023.91
2018-06-28T00:21:22.350Z,1023.87
2018-06-28T00:22:22.373Z,1023.92
2018-06-28T00:23:22.393Z,1023.91
2018-06-28T00:24:22.420Z,1023.94
2018-06-28T00:25:22.445Z,1023.88
2018-06-28T00:26:43.492Z,1023.89
2018-06-28T00:27:22.495Z,1023.91
2018-06-28T00:28:22.517Z,1023.90
2018-06-28T00:29:22.536Z,1023.90
2018-06-28T00:30:22.560Z,1023.89
2018-06-28T00:31:22.587Z,1023.90
2018-06-28T00:32:43.625Z,1023.89
2018-06-28T00:33:22.629Z,1023.90
2018-06-28T00:34:22.652Z,1023.86
2018-06-28T00:35:22.678Z,1023.88
2018-06-28T00:36:22.701Z,1023.88
2018-06-28T00:37:22.727Z,1023.89
2018-06-28T00:38:43.770Z,1023.89
2018-06-28T00:39:22.768Z,1023.84
2018-06-28T00:40:22.793Z,1023.86
2018-06-28T00:41:22.821Z,1023.87
2018-06-28T00:42:22.845Z,1023.86
2018-06-28T00:43:22.870Z,1023.82
2018-06-28T00:44:43.908Z,1023.87
2018-06-28T00:45:22.916Z,1023.86
2018-06-28T00:46:22.936Z,1023.87
2018-06-28T00:47:22.963Z,1023.86
2018-06-28T00:48:22.981Z,1023.85
2018-06-28T00:49:23.005Z,1023.82
2018-06-28T00:50:44.047Z,1023.85
2018-06-28T00:51:23.054Z,1023.87
2018-06-28T00:52:23.081Z,1023.84
2018-06-28T00:53:23.104Z,1023.83
2018-06-28T00:54:23.127Z,1023.83
2018-06-28T00:55:23.148Z,1023.83
2018-06-28T00:56:44.190Z,1023.90
2018-06-28T00:57:23.197Z,1023.85
2018-06-28T00:58:23.218Z,1023.84
2018-06-28T00:59:23.244Z,1023.82
2018-06-28T01:00:23.262Z,1023.82
2018-06-28T01:01:23.286Z,1023.84
2018-06-28T01:02:44.332Z,1023.84
2018-06-28T01:03:23.343Z,1023.82
2018-06-28T01:04:23.357Z,1023.83
2018-06-28T01:05:23.382Z,1023.85
2018-06-28T01:06:23.407Z,1023.84
2018-06-28T01:07:23.428Z,1023.84
2018-06-28T01:08:44.471Z,1023.80
2018-06-28T01:09:23.477Z,1023.78
2018-06-28T01:10:23.499Z,1023.82
2018-06-28T01:11:23.521Z,1023.81
2018-06-28T01:12:23.549Z,1023.79
2018-06-28T01:13:23.571Z,1023.77
2018-06-28T01:14:44.615Z,1023.79
2018-06-28T01:15:23.619Z,1023.82
2018-06-28T01:16:23.639Z,1023.79
2018-06-28T01:17:23.663Z,1023.75
2018-06-28T01:18:23.689Z,1023.79
2018-06-28T01:19:23.712Z,1023.74
2018-06-28T01:20:44.745Z,1023.72
2018-06-28T01:21:23.755Z,1023.73
2018-06-28T01:22:23.779Z,1023.70
2018-06-28T01:23:23.809Z,1023.70
2018-06-28T01:24:23.830Z,1023.71
2018-06-28T01:25:23.860Z,1023.69
2018-06-28T01:26:44.891Z,1023.69
2018-06-28T01:27:23.901Z,1023.73
2018-06-28T01:28:23.929Z,1023.71
2018-06-28T01:29:23.947Z,1023.72
2018-06-28T01:30:23.969Z,1023.71
2018-06-28T01:31:23.993Z,1023.69
2018-06-28T01:32:45.028Z,1023.68
2018-06-28T01:33:24.035Z,1023.68
2018-06-28T01:34:24.064Z,1023.71
2018-06-28T01:35:24.097Z,1023.72
2018-06-28T01:36:24.107Z,1023.72
2018-06-28T01:37:24.131Z,1023.71
2018-06-28T01:38:45.171Z,1023.67
2018-06-28T01:39:24.176Z,1023.71
2018-06-28T01:40:24.205Z,1023.70
2018-06-28T01:41:24.227Z,1023.71
2018-06-28T01:42:24.251Z,1023.72
2018-06-28T01:43:24.275Z,1023.72
2018-06-28T01:44:45.308Z,1023.72
2018-06-28T01:45:24.320Z,1023.74
2018-06-28T01:46:24.342Z,1023.75
2018-06-28T01:47:24.366Z,1023.74
2018-06-28T01:48:24.395Z,1023.72
2018-06-28T01:49:24.437Z,1023.73
2018-06-28T01:50:45.451Z,1023.73
2018-06-28T01:51:24.460Z,1023.70
2018-06-28T01:52:24.484Z,1023.74
2018-06-28T01:53:24.511Z,1023.73
2018-06-28T01:54:24.535Z,1023.71
2018-06-28T01:55:24.557Z,1023.70
2018-06-28T01:56:45.591Z,1023.68
2018-06-28T01:57:24.599Z,1023.70
2018-06-28T01:58:24.627Z,1023.71
2018-06-28T01:59:24.652Z,1023.71
2018-06-28T02:00:24.668Z,1023.72
2018-06-28T02:01:24.694Z,1023.72
2018-06-28T02:02:45.736Z,1023.74
2018-06-28T02:03:24.741Z,1023.73
2018-06-28T02:04:24.768Z,1023.72
2018-06-28T02:05:24.788Z,1023.70
2018-06-28T02:06:24.810Z,1023.72
2018-06-28T02:07:24.838Z,1023.69
2018-06-28T02:08:45.879Z,1023.72
2018-06-28T02:09:24.888Z,1023.72
2018-06-28T02:10:24.911Z,1023.73
2018-06-28T02:11:24.929Z,1023.76
2018-06-28T02:12:24.950Z,1023.75
2018-06-28T02:13:24.972Z,1023.78
2018-06-28T02:14:46.017Z,1023.77
2018-06-28T02:15:25.023Z,1023.77
2018-06-28T02:16:25.043Z,1023.79
2018-06-28T02:17:25.065Z,1023.81
2018-06-28T02:18:25.091Z,1023.81
2018-06-28T02:19:25.118Z,1023.79
2018-06-28T02:20:46.161Z,1023.79
2018-06-28T02:21:25.164Z,1023.80
2018-06-28T02:22:25.184Z,1023.78
2018-06-28T02:23:25.205Z,1023.82
2018-06-28T02:24:25.235Z,1023.77
2018-06-28T02:25:25.259Z,1023.80
2018-06-28T02:26:46.346Z,1023.81
2018-06-28T02:27:25.305Z,1023.78
2018-06-28T02:28:25.324Z,1023.77
2018-06-28T02:29:25.349Z,1023.78
2018-06-28T02:30:25.378Z,1023.81
2018-06-28T02:31:25.398Z,1023.75
2018-06-28T02:32:46.438Z,1023.77
2018-06-28T02:33:25.444Z,1023.74
2018-06-28T02:34:25.471Z,1023.74
2018-06-28T02:35:25.485Z,1023.72
2018-06-28T02:36:25.513Z,1023.71
2018-06-28T02:37:25.537Z,1023.72
2018-06-28T02:38:46.574Z,1023.70
2018-06-28T02:39:25.584Z,1023.68
2018-06-28T02:40:25.608Z,1023.70
2018-06-28T02:41:25.634Z,1023.69
2018-06-28T02:42:25.661Z,1023.68
2018-06-28T02:43:25.678Z,1023.68
2018-06-28T02:44:46.719Z,1023.67
2018-06-28T02:45:25.721Z,1023.66
2018-06-28T02:46:25.750Z,1023.65
2018-06-28T02:47:25.772Z,1023.66
2018-06-28T02:48:25.792Z,1023.65
2018-06-28T02:49:25.816Z,1023.65
2018-06-28T02:50:46.855Z,1023.65
2018-06-28T02:51:25.860Z,1023.68
2018-06-28T02:52:25.888Z,1023.64
2018-06-28T02:53:25.909Z,1023.64
2018-06-28T02:54:25.931Z,1023.66
2018-06-28T02:55:25.959Z,1023.72
2018-06-28T02:56:46.998Z,1023.67
2018-06-28T02:57:26.007Z,1023.70
2018-06-28T02:58:26.039Z,1023.69
2018-06-28T02:59:26.055Z,1023.69
2018-06-28T03:00:26.070Z,1023.75
2018-06-28T03:01:26.093Z,1023.63
2018-06-28T03:02:47.138Z,1023.60
2018-06-28T03:03:26.144Z,1023.61
2018-06-28T03:04:26.164Z,1023.62
2018-06-28T03:05:26.186Z,1023.63
2018-06-28T03:06:26.211Z,1023.65
2018-06-28T03:07:26.239Z,1023.64
2018-06-28T03:08:47.282Z,1023.65
2018-06-28T03:09:26.287Z,1023.66
2018-06-28T03:10:26.306Z,1023.64
2018-06-28T03:11:26.327Z,1023.69
2018-06-28T03:12:26.355Z,1023.68
2018-06-28T03:13:26.377Z,1023.70
2018-06-28T03:14:47.423Z,1023.66
2018-06-28T03:15:26.425Z,1023.66
2018-06-28T03:16:26.451Z,1023.70
2018-06-28T03:17:26.468Z,1023.71
2018-06-28T03:18:26.495Z,1023.69
2018-06-28T03:19:26.522Z,1023.66
2018-06-28T03:20:47.553Z,1023.67
2018-06-28T03:21:26.586Z,1023.72
2018-06-28T03:22:26.583Z,1023.72
2018-06-28T03:23:26.609Z,1023.74
2018-06-28T03:24:26.634Z,1023.77
2018-06-28T03:25:26.656Z,1023.76
2018-06-28T03:26:47.695Z,1023.74
2018-06-28T03:27:26.702Z,1023.72
2018-06-28T03:28:26.728Z,1023.75
2018-06-28T03:29:26.752Z,1023.73
2018-06-28T03:30:26.782Z,1023.71
2018-06-28T03:31:26.801Z,1023.69
2018-06-28T03:32:47.834Z,1023.74
2018-06-28T03:33:26.839Z,1023.73
2018-06-28T03:34:26.868Z,1023.72
2018-06-28T03:35:26.890Z,1023.72
2018-06-28T03:36:26.910Z,1023.72
2018-06-28T03:37:26.939Z,1023.70
2018-06-28T03:38:47.980Z,1023.73
2018-06-28T03:39:27.000Z,1023.73
2018-06-28T03:40:27.010Z,1023.71
2018-06-28T03:41:27.037Z,1023.71
2018-06-28T03:42:27.052Z,1023.72
2018-06-28T03:43:27.076Z,1023.76
2018-06-28T03:44:48.124Z,1023.77
2018-06-28T03:45:27.128Z,1023.78
2018-06-28T03:46:27.155Z,1023.76
2018-06-28T03:47:27.184Z,1023.79
2018-06-28T03:48:27.197Z,1023.78
2018-06-28T03:49:27.223Z,1023.77
2018-06-28T03:50:48.260Z,1023.78
2018-06-28T03:51:27.272Z,1023.83
2018-06-28T03:52:27.297Z,1023.83
2018-06-28T03:53:27.321Z,1023.78
2018-06-28T03:54:27.353Z,1023.78
2018-06-28T03:55:27.372Z,1023.82
2018-06-28T03:56:48.410Z,1023.79
2018-06-28T03:57:27.487Z,1023.87
2018-06-28T03:58:27.442Z,1023.86
2018-06-28T03:59:27.468Z,1023.87
2018-06-28T04:00:27.487Z,1023.84
2018-06-28T04:01:27.512Z,1023.89
2018-06-28T04:02:48.557Z,1023.88
2018-06-28T04:03:27.568Z,1023.89
2018-06-28T04:04:27.590Z,1023.91
2018-06-28T04:05:27.617Z,1023.93
2018-06-28T04:06:27.688Z,1023.99
2018-06-28T04:07:27.663Z,1023.98
2018-06-28T04:08:48.710Z,1023.98
2018-06-28T04:09:27.722Z,1023.98
2018-06-28T04:10:27.741Z,1024.03
2018-06-28T04:11:27.765Z,1024.03
2018-06-28T04:12:27.786Z,1024.03
2018-06-28T04:13:27.811Z,1024.04
2018-06-28T04:14:48.860Z,1024.08
2018-06-28T04:15:27.868Z,1024.08
2018-06-28T04:16:27.892Z,1024.12
2018-06-28T04:17:27.916Z,1024.09
2018-06-28T04:18:27.939Z,1024.09
2018-06-28T04:19:27.965Z,1024.07
2018-06-28T04:20:49.011Z,1024.08
2018-06-28T04:21:28.022Z,1024.05
2018-06-28T04:22:28.042Z,1024.03
2018-06-28T04:23:28.072Z,1024.04
2018-06-28T04:24:28.099Z,1024.08
2018-06-28T04:25:28.128Z,1024.11
2018-06-28T04:26:49.172Z,1024.05
2018-06-28T04:27:28.181Z,1024.07
2018-06-28T04:28:28.204Z,1024.08
2018-06-28T04:29:28.230Z,1024.08
2018-06-28T04:30:28.260Z,1024.09
2018-06-28T04:31:28.289Z,1024.05
2018-06-28T04:32:49.328Z,1024.10
2018-06-28T04:33:28.337Z,1024.12
2018-06-28T04:34:28.367Z,1024.09
2018-06-28T04:35:28.396Z,1024.12
2018-06-28T04:36:28.426Z,1024.10
2018-06-28T04:37:28.460Z,1024.11
2018-06-28T04:38:49.498Z,1024.10
2018-06-28T04:39:28.507Z,1024.11
2018-06-28T04:40:28.541Z,1024.09
2018-06-28T04:41:28.568Z,1024.08
2018-06-28T04:42:28.597Z,1024.07
2018-06-28T04:43:28.625Z,1024.05
2018-06-28T04:44:49.663Z,1024.09
2018-06-28T04:45:28.677Z,1024.04
2018-06-28T04:46:28.713Z,1024.04
2018-06-28T04:47:28.740Z,1024.06
2018-06-28T04:48:28.766Z,1024.04
2018-06-28T04:49:28.795Z,1024.07
2018-06-28T04:50:49.843Z,1024.07
2018-06-28T04:51:28.868Z,1024.10
2018-06-28T04:52:28.886Z,1024.13
2018-06-28T04:53:28.924Z,1024.11
2018-06-28T04:54:28.944Z,1024.13
2018-06-28T04:55:28.975Z,1024.13
2018-06-28T04:56:50.027Z,1024.10
2018-06-28T04:57:29.039Z,1024.09
2018-06-28T04:58:29.075Z,1024.10
2018-06-28T04:59:29.098Z,1024.09
2018-06-28T05:00:29.127Z,1024.14
2018-06-28T05:01:29.155Z,1024.13
2018-06-28T05:02:50.211Z,1024.12
2018-06-28T05:03:29.224Z,1024.14
2018-06-28T05:04:29.254Z,1024.07
2018-06-28T05:05:29.280Z,1024.09
2018-06-28T05:06:29.314Z,1024.12
2018-06-28T05:07:29.345Z,1024.10
2018-06-28T05:08:50.399Z,1024.10
2018-06-28T05:09:29.410Z,1024.07
2018-06-28T05:10:29.436Z,1024.07
2018-06-28T05:11:29.468Z,1024.08
2018-06-28T05:12:29.503Z,1024.10
2018-06-28T05:13:29.535Z,1024.09
2018-06-28T05:14:50.589Z,1024.08
2018-06-28T05:15:29.602Z,1024.09
2018-06-28T05:16:29.629Z,1024.09
2018-06-28T05:17:29.662Z,1024.12
2018-06-28T05:18:29.697Z,1024.11
2018-06-28T05:19:29.729Z,1024.08
2018-06-28T05:20:50.778Z,1024.09
2018-06-28T05:21:29.789Z,1024.10
2018-06-28T05:22:29.824Z,1024.07
2018-06-28T05:23:29.857Z,1024.03
2018-06-28T05:24:29.893Z,1024.00
2018-06-28T05:25:29.929Z,1024.01
2018-06-28T05:26:50.976Z,1023.93
2018-06-28T05:27:29.987Z,1023.93
2018-06-28T05:28:30.024Z,1023.95
2018-06-28T05:29:30.056Z,1023.90
2018-06-28T05:30:30.089Z,1023.86
2018-06-28T05:31:30.122Z,1023.88
2018-06-28T05:32:51.172Z,1023.86
2018-06-28T05:33:30.181Z,1023.88
2018-06-28T05:34:30.265Z,1023.86
2018-06-28T05:35:30.253Z,1023.88
2018-06-28T05:36:30.280Z,1023.86
2018-06-28T05:37:30.315Z,1023.85
2018-06-28T05:38:51.363Z,1023.87
2018-06-28T05:39:30.376Z,1023.91
2018-06-28T05:40:30.411Z,1023.93
2018-06-28T05:41:30.445Z,1023.95
2018-06-28T05:42:30.467Z,1023.93
2018-06-28T05:43:30.504Z,1023.93
2018-06-28T05:44:51.557Z,1023.92
2018-06-28T05:45:30.573Z,1023.92
2018-06-28T05:46:30.603Z,1023.91
2018-06-28T05:47:30.634Z,1023.91
2018-06-28T05:48:30.661Z,1023.93
2018-06-28T05:49:30.694Z,1023.92
2018-06-28T05:50:51.779Z,1023.95
2018-06-28T05:51:30.756Z,1023.95
2018-06-28T05:52:30.782Z,1023.91
2018-06-28T05:53:30.814Z,1023.94
2018-06-28T05:54:30.846Z,1023.95
2018-06-28T05:55:30.876Z,1023.93
2018-06-28T05:56:51.930Z,1023.96
2018-06-28T05:57:30.941Z,1023.97
2018-06-28T05:58:31.140Z,1023.99
2018-06-28T05:59:31.002Z,1023.94
2018-06-28T06:00:31.027Z,1023.99
2018-06-28T06:01:31.060Z,1023.98
2018-06-28T06:02:52.107Z,1023.98
2018-06-28T06:03:31.117Z,1024.01
2018-06-28T06:04:31.150Z,1024.00
2018-06-28T06:05:31.182Z,1024.04
2018-06-28T06:06:31.210Z,1024.00
2018-06-28T06:07:31.239Z,1024.07
2018-06-28T06:08:52.290Z,1024.02
2018-06-28T06:09:31.303Z,1024.06
2018-06-28T06:10:31.332Z,1024.07
2018-06-28T06:11:31.361Z,1024.06
2018-06-28T06:12:31.387Z,1024.04
2018-06-28T06:13:31.419Z,1024.10
2018-06-28T06:14:52.473Z,1024.13
2018-06-28T06:15:31.483Z,1024.10
2018-06-28T06:16:31.510Z,1024.09
2018-06-28T06:17:31.541Z,1024.10
2018-06-28T06:18:31.574Z,1024.09
2018-06-28T06:19:31.605Z,1024.09
2018-06-28T06:20:52.659Z,1024.09
2018-06-28T06:21:31.692Z,1024.09
2018-06-28T06:22:31.696Z,1024.11
2018-06-28T06:23:31.727Z,1024.07
2018-06-28T06:24:31.764Z,1024.04
2018-06-28T06:25:31.795Z,1024.07
2018-06-28T06:26:52.851Z,1024.02
2018-06-28T06:27:31.861Z,1024.01
2018-06-28T06:28:31.887Z,1023.98
2018-06-28T06:29:31.976Z,1023.95
2018-06-28T06:30:31.958Z,1023.95
2018-06-28T06:31:31.993Z,1023.93
2018-06-28T06:32:53.033Z,1023.98
2018-06-28T06:33:32.046Z,1023.97
2018-06-28T06:34:32.076Z,1023.97
2018-06-28T06:35:32.107Z,1023.93
2018-06-28T06:36:32.143Z,1023.93
2018-06-28T06:37:32.174Z,1023.96
2018-06-28T06:38:53.221Z,1023.96
2018-06-28T06:39:32.234Z,1023.99
2018-06-28T06:40:32.269Z,1024.00
2018-06-28T06:41:32.302Z,1023.96
2018-06-28T06:42:32.352Z,1023.98
2018-06-28T06:43:32.359Z,1023.96
2018-06-28T06:44:53.403Z,1023.95
2018-06-28T06:45:32.419Z,1023.91
2018-06-28T06:46:32.449Z,1023.92
2018-06-28T06:47:32.480Z,1023.94
2018-06-28T06:48:32.511Z,1023.96
2018-06-28T06:49:32.536Z,1023.98
2018-06-28T06:51:32.599Z,1023.96
2018-06-28T06:52:32.630Z,1023.94
2018-06-28T06:53:32.659Z,1023.94
2018-06-28T06:54:32.684Z,1023.93
2018-06-28T06:55:32.713Z,1023.98
2018-06-28T06:58:04.624Z,1023.92
2018-06-28T06:59:04.626Z,1023.92
2018-06-28T07:00:04.659Z,1023.89
2018-06-28T07:01:04.685Z,1023.92
2018-06-28T07:02:04.712Z,1023.93
2018-06-28T07:03:04.741Z,1023.94
2018-06-28T07:04:04.777Z,1023.93
2018-06-28T07:05:04.804Z,1023.96
2018-06-28T07:06:04.833Z,1023.94
2018-06-28T07:07:04.862Z,1023.92
2018-06-28T07:08:04.891Z,1023.91
2018-06-28T07:09:04.914Z,1023.93
2018-06-28T07:10:04.950Z,1023.96
2018-06-28T07:11:04.976Z,1023.90
2018-06-28T07:12:04.997Z,1023.96
2018-06-28T07:13:05.028Z,1023.92
2018-06-28T07:14:05.055Z,1023.91
2018-06-28T07:15:05.084Z,1023.90
2018-06-28T07:16:05.163Z,1023.90
2018-06-28T07:17:05.145Z,1023.90
2018-06-28T07:18:05.168Z,1023.90
2018-06-28T07:19:05.195Z,1023.91
2018-06-28T07:20:05.226Z,1023.92
2018-06-28T07:21:05.256Z,1023.93
2018-06-28T07:22:05.306Z,1023.96
2018-06-28T07:23:05.328Z,1023.94
2018-06-28T07:24:05.333Z,1023.96
2018-06-28T07:25:05.359Z,1023.99
2018-06-28T07:26:05.393Z,1024.02
2018-06-28T07:27:05.423Z,1023.99
2018-06-28T07:28:05.446Z,1023.93
2018-06-28T07:29:05.472Z,1023.97
2018-06-28T07:30:05.492Z,1023.95
2018-06-28T07:31:05.526Z,1023.89
2018-06-28T07:32:05.557Z,1023.90
2018-06-28T07:33:05.635Z,1023.93
2018-06-28T07:34:05.623Z,1023.90
2018-06-28T07:35:05.636Z,1023.88
2018-06-28T07:36:05.670Z,1023.90
2018-06-28T07:37:05.695Z,1023.93
2018-06-28T07:38:05.721Z,1023.90
2018-06-28T07:39:05.749Z,1023.88
2018-06-28T07:40:05.774Z,1023.89
2018-06-28T07:41:05.802Z,1023.91
2018-06-28T07:42:05.833Z,1023.88
2018-06-28T07:43:05.858Z,1023.89
2018-06-28T07:44:05.882Z,1023.88
2018-06-28T07:45:05.908Z,1023.83
2018-06-28T07:46:05.935Z,1023.85
2018-06-28T07:47:05.965Z,1023.86
2018-06-28T07:48:05.996Z,1023.82
2018-06-28T07:49:06.090Z,1023.80
2018-06-28T07:50:06.041Z,1023.83
2018-06-28T07:51:06.068Z,1023.82
2018-06-28T07:52:06.099Z,1023.81
2018-06-28T07:53:06.127Z,1023.82
2018-06-28T07:54:06.154Z,1023.83
2018-06-28T07:55:06.182Z,1023.80
2018-06-28T07:56:06.204Z,1023.80
2018-06-28T07:57:06.231Z,1023.81
2018-06-28T07:58:06.260Z,1023.78
2018-06-28T07:59:06.287Z,1023.75
2018-06-28T08:00:06.327Z,1023.76
2018-06-28T08:01:06.335Z,1023.75
2018-06-28T08:02:06.366Z,1023.74
2018-06-28T08:03:06.394Z,1023.70
2018-06-28T08:04:06.422Z,1023.73
2018-06-28T08:05:06.447Z,1023.69
2018-06-28T08:06:06.472Z,1023.72
2018-06-28T08:07:06.497Z,1023.72
2018-06-28T08:08:06.529Z,1023.72
2018-06-28T08:09:06.558Z,1023.72
2018-06-28T08:10:06.586Z,1023.74
2018-06-28T08:11:06.610Z,1023.74
2018-06-28T08:12:06.628Z,1023.77
2018-06-28T08:13:06.654Z,1023.73
2018-06-28T08:14:06.690Z,1023.77
2018-06-28T08:15:06.711Z,1023.76
2018-06-28T08:16:06.739Z,1023.74
2018-06-28T08:17:06.810Z,1023.75
2018-06-28T08:18:06.787Z,1023.74
2018-06-28T08:19:06.813Z,1023.71
2018-06-28T08:20:06.840Z,1023.69
2018-06-28T08:21:07.478Z,1023.71
2018-06-28T08:22:06.893Z,1023.75
2018-06-28T08:23:06.923Z,1023.76
2018-06-28T08:24:06.949Z,1023.73
2018-06-28T08:25:06.971Z,1023.75
2018-06-28T08:26:07.005Z,1023.76
2018-06-28T08:27:07.028Z,1023.74
2018-06-28T08:28:07.059Z,1023.73
2018-06-28T08:29:07.078Z,1023.73
2018-06-28T08:30:07.106Z,1023.74
2018-06-28T08:31:07.135Z,1023.77
2018-06-28T08:32:07.156Z,1023.76
2018-06-28T08:33:07.185Z,1023.76
2018-06-28T08:34:07.206Z,1023.76
2018-06-28T08:35:07.234Z,1023.74
2018-06-28T08:36:07.307Z,1023.70
2018-06-28T08:37:07.294Z,1023.66
2018-06-28T08:38:07.316Z,1023.68
2018-06-28T08:39:07.342Z,1023.70
2018-06-28T08:40:07.365Z,1023.69
2018-06-28T08:41:07.405Z,1023.63
2018-06-28T08:42:07.415Z,1023.66
2018-06-28T08:43:07.475Z,1023.57
2018-06-28T08:44:07.468Z,1023.69
2018-06-28T08:45:07.494Z,1023.59
2018-06-28T08:46:07.521Z,1023.63
2018-06-28T08:47:07.545Z,1023.66
2018-06-28T08:48:07.606Z,1023.60
2018-06-28T08:49:07.711Z,1023.61
2018-06-28T08:50:07.630Z,1023.60
2018-06-28T08:51:07.665Z,1023.55
2018-06-28T08:52:07.680Z,1023.53
2018-06-28T08:53:07.697Z,1023.50
2018-06-28T08:54:07.967Z,1023.52
2018-06-28T08:55:07.765Z,1023.46
2018-06-28T08:56:07.792Z,1023.50
2018-06-28T08:57:07.800Z,1023.52
2018-06-28T08:58:07.887Z,1023.50
2018-06-28T08:59:07.851Z,1023.48
2018-06-28T09:00:07.886Z,1023.49
2018-06-28T09:01:07.913Z,1023.44
2018-06-28T09:02:07.960Z,1023.50
2018-06-28T09:03:07.949Z,1023.44
2018-06-28T09:04:07.988Z,1023.41
2018-06-28T09:05:08.009Z,1023.50
2018-06-28T09:06:08.041Z,1023.53
2018-06-28T09:07:08.064Z,1023.50
2018-06-28T09:08:08.087Z,1023.48
2018-06-28T09:09:09.112Z,1023.49
2018-06-28T09:10:08.140Z,1023.49
2018-06-28T09:11:08.170Z,1023.48
2018-06-28T09:12:08.190Z,1023.49
2018-06-28T09:13:08.215Z,1023.42
2018-06-28T09:14:08.238Z,1023.43
2018-06-28T09:15:08.268Z,1023.41
2018-06-28T09:16:08.293Z,1023.43
2018-06-28T09:17:08.317Z,1023.43
2018-06-28T09:18:08.341Z,1023.41
2018-06-28T09:19:08.372Z,1023.46
2018-06-28T09:20:08.405Z,1023.42
2018-06-28T09:21:08.423Z,1023.45
2018-06-28T09:22:08.445Z,1023.45
2018-06-28T09:23:08.563Z,1023.43
2018-06-28T09:24:08.491Z,1023.42
2018-06-28T09:25:08.518Z,1023.37
2018-06-28T09:26:08.551Z,1023.39
2018-06-28T09:27:08.577Z,1023.40
2018-06-28T09:28:08.595Z,1023.39
2018-06-28T09:29:08.621Z,1023.36
2018-06-28T09:30:08.649Z,1023.35
2018-06-28T09:31:08.672Z,1023.34
2018-06-28T09:32:08.703Z,1023.36
2018-06-28T09:33:08.751Z,1023.36
2018-06-28T09:34:08.749Z,1023.30
2018-06-28T09:35:08.776Z,1023.33
2018-06-28T09:36:08.803Z,1023.31
2018-06-28T09:37:08.831Z,1023.38
2018-06-28T09:38:08.850Z,1023.33
2018-06-28T09:39:08.878Z,1023.29
2018-06-28T09:40:08.902Z,1023.25
2018-06-28T09:41:08.930Z,1023.27
2018-06-28T09:42:08.983Z,1023.23
2018-06-28T09:43:08.978Z,1023.30
2018-06-28T09:44:08.999Z,1023.25
2018-06-28T09:45:09.023Z,1023.24
2018-06-28T09:46:09.060Z,1023.32
2018-06-28T09:47:09.077Z,1023.29
2018-06-28T09:48:09.108Z,1023.30
2018-06-28T09:49:09.131Z,1023.28
2018-06-28T09:50:09.150Z,1023.21
2018-06-28T09:51:09.185Z,1023.27
2018-06-28T09:52:09.205Z,1023.28
2018-06-28T09:53:09.232Z,1023.23
2018-06-28T09:54:09.258Z,1023.25
2018-06-28T09:55:09.281Z,1023.24
2018-06-28T09:56:09.311Z,1023.26
2018-06-28T09:57:09.367Z,1023.26
2018-06-28T09:58:09.357Z,1023.23
2018-06-28T09:59:09.385Z,1023.23
2018-06-28T10:00:09.431Z,1023.16
2018-06-28T10:01:09.430Z,1023.12
2018-06-28T10:02:09.452Z,1023.09
2018-06-28T10:03:09.506Z,1023.11
2018-06-28T10:04:09.509Z,1023.12
2018-06-28T10:05:09.531Z,1023.02
2018-06-28T10:06:09.561Z,1023.03
2018-06-28T10:07:09.579Z,1023.00
2018-06-28T10:08:09.615Z,1023.01
2018-06-28T10:09:09.633Z,1022.96
2018-06-28T10:10:09.656Z,1022.95
2018-06-28T10:11:09.680Z,1022.95
2018-06-28T10:12:09.706Z,1022.87
2018-06-28T10:13:09.757Z,1022.95
2018-06-28T10:14:09.762Z,1022.87
2018-06-28T10:15:09.784Z,1022.93
2018-06-28T10:16:09.813Z,1022.95
2018-06-28T10:17:09.827Z,1022.96
2018-06-28T10:18:09.905Z,1022.88
2018-06-28T10:19:09.881Z,1022.90
2018-06-28T10:20:09.907Z,1022.92
2018-06-28T10:21:09.973Z,1022.90
2018-06-28T10:22:09.951Z,1022.89
2018-06-28T10:23:09.976Z,1022.85
2018-06-28T10:24:10.006Z,1022.81
2018-06-28T10:25:10.275Z,1022.90
2018-06-28T10:26:10.062Z,1022.83
2018-06-28T10:27:10.088Z,1022.83
2018-06-28T10:28:10.107Z,1022.79
2018-06-28T10:29:10.128Z,1022.82
2018-06-28T10:30:10.157Z,1022.80
2018-06-28T10:31:10.181Z,1022.84
2018-06-28T10:32:10.206Z,1022.78
2018-06-28T10:33:10.232Z,1022.85
2018-06-28T10:34:10.250Z,1022.79
2018-06-28T10:35:10.275Z,1022.78
2018-06-28T10:36:10.331Z,1022.79
2018-06-28T10:37:10.329Z,1022.81
2018-06-28T10:38:10.351Z,1022.80
2018-06-28T10:39:10.380Z,1022.78
2018-06-28T10:40:10.406Z,1022.75
2018-06-28T10:41:10.429Z,1022.74
2018-06-28T10:42:10.453Z,1022.68
2018-06-28T10:43:10.480Z,1022.75
2018-06-28T10:44:10.515Z,1022.70
2018-06-28T10:45:10.527Z,1022.66
2018-06-28T10:46:10.552Z,1022.68
2018-06-28T10:47:10.574Z,1022.70
2018-06-28T10:48:10.603Z,1022.68
2018-06-28T10:49:10.642Z,1022.67
2018-06-28T10:50:10.655Z,1022.65
2018-06-28T10:51:10.680Z,1022.64
2018-06-28T10:52:10.702Z,1022.63
2018-06-28T10:53:10.727Z,1022.60
2018-06-28T10:54:10.755Z,1022.61
2018-06-28T10:55:10.778Z,1022.70
2018-06-28T10:56:10.798Z,1022.64
2018-06-28T10:57:10.821Z,1022.67
2018-06-28T10:58:10.846Z,1022.67
2018-06-28T10:59:10.873Z,1022.62
2018-06-28T11:00:10.903Z,1022.58
2018-06-28T11:01:10.927Z,1022.58
2018-06-28T11:02:10.951Z,1022.54
2018-06-28T11:03:10.973Z,1022.53
2018-06-28T11:04:11.002Z,1022.58
2018-06-28T11:05:11.027Z,1022.54
2018-06-28T11:06:11.048Z,1022.60
2018-06-28T11:07:11.074Z,1022.57
2018-06-28T11:08:11.104Z,1022.51
2018-06-28T11:09:11.132Z,1022.52
2018-06-28T11:10:11.153Z,1022.49
2018-06-28T11:11:11.175Z,1022.44
2018-06-28T11:12:11.196Z,1022.51
2018-06-28T11:13:11.223Z,1022.49
2018-06-28T11:14:11.247Z,1022.51
2018-06-28T11:15:11.266Z,1022.47
2018-06-28T11:16:11.297Z,1022.48
2018-06-28T11:17:11.321Z,1022.47
2018-06-28T11:18:11.345Z,1022.49
2018-06-28T11:19:11.369Z,1022.44
2018-06-28T11:20:11.395Z,1022.44
2018-06-28T11:21:11.420Z,1022.38
2018-06-28T11:22:11.449Z,1022.41
2018-06-28T11:23:11.471Z,1022.38
2018-06-28T11:24:11.496Z,1022.37
2018-06-28T11:25:11.549Z,1022.46
2018-06-28T11:26:11.551Z,1022.44
2018-06-28T11:27:11.568Z,1022.39
2018-06-28T11:28:11.593Z,1022.46
2018-06-28T11:29:11.616Z,1022.40
2018-06-28T11:30:11.691Z,1022.38
2018-06-28T11:31:11.666Z,1022.30
2018-06-28T11:32:11.697Z,1022.41
2018-06-28T11:33:11.718Z,1022.37
2018-06-28T11:34:11.896Z,1022.27
2018-06-28T11:35:11.764Z,1022.36
2018-06-28T11:36:11.819Z,1022.33
2018-06-28T11:37:11.826Z,1022.27
2018-06-28T11:38:11.840Z,1022.27
2018-06-28T11:39:11.866Z,1022.33
2018-06-28T11:40:11.887Z,1022.35
2018-06-28T11:41:11.910Z,1022.29
2018-06-28T11:42:11.940Z,1022.25
2018-06-28T11:43:11.966Z,1022.24
2018-06-28T11:44:11.986Z,1022.28
2018-06-28T11:45:12.009Z,1022.18
2018-06-28T11:46:12.033Z,1022.21
2018-06-28T11:47:12.060Z,1022.22
2018-06-28T11:48:12.088Z,1022.19
2018-06-28T11:49:12.114Z,1022.20
2018-06-28T11:50:12.185Z,1022.15
2018-06-28T11:51:12.159Z,1022.15
2018-06-28T11:52:12.193Z,1022.17
2018-06-28T11:53:12.213Z,1022.08
2018-06-28T11:54:12.235Z,1022.10
2018-06-28T11:55:12.259Z,1022.12
2018-06-28T11:56:12.281Z,1022.15
2018-06-28T11:57:12.303Z,1022.10
2018-06-28T11:58:12.335Z,1022.02
2018-06-28T11:59:12.489Z,1022.04
2018-06-28T12:00:12.429Z,1022.08
2018-06-28T12:01:12.406Z,1022.06
2018-06-28T12:02:12.434Z,1021.99
2018-06-28T12:03:12.479Z,1021.93
2018-06-28T12:04:12.481Z,1021.94
2018-06-28T12:05:12.553Z,1021.94
2018-06-28T12:06:12.527Z,1021.90
2018-06-28T12:07:12.551Z,1021.92
2018-06-28T12:08:12.583Z,1021.92